Edinburgh Airport, United Kingdom

2:26 PM BST on May 04, 2015 (GMT +0100)
Edinburgh Airport | | Change Station
CLOSE
Current Station
Airport
Location: Edinburgh Airport,
Elevation: 135 ft
Nearby Weather Stations

Elev 135 ft 55.95 °N, 3.35 °W | Updated 6 minutes ago

Scattered Clouds
Scattered Clouds
57 °F
Feels Like 57 °F
N
16
Wind Variable Wind from SW

Today
High -- | Low -- °F
--% Chance of Precip.
Yesterday
High -- | Low -- °F
Precip. -- in
5:23 AM 8:57 PM
Full, 100% visible
Pressure 29.50 in
Visibility 6.2 miles
Clouds Scattered Clouds 4600 ft
Dew Point 39 °F
Humidity 51%
Rainfall 0.00 in
Snow Depth Not available.
UV 7 out of 12
Pollen Not available.
Air Quality Not available.
Flu Activity Not available.
METAR EGPH 041320Z 23014KT 9999 SCT046 14/04 Q0999

More Conditions Fewer Conditions

Pressure 29.50 in
Visibility 6.2 miles
Clouds Scattered Clouds 4600 ft
Dew Point 39 °F
Humidity 51%
Rainfall 0.00 in
Snow Depth Not available.
UV 7 out of 12
Pollen Not available.
Air Quality Not available.
Flu Activity Not available.
METAR EGPH 041320Z 23014KT 9999 SCT046 14/04 Q0999

More Conditions Fewer Conditions

10-Day Weather Forecast

Almanac

Astronomy

May. 04, 2015 Rise Set
Actual Time
Civil Twilight
Nautical Twilight
Astronomical Twilight
Moon
Length of Visible Light
Length of Day
Tomorrow will be .
, % of the Moon is Illuminated

Today's Extremes

Country Highs Country Lows

Community

WunderPhotos

Upload Photos

1,818,604 photos uploaded!

WunderBlogs® & News

Nearby

Air Quality

  Air Quality AQ Index Pollutant
Not available.

Snow Depth

Station Depth Elevation

Earthquake Activity

City Distance Mag. Time & Date
Minimum magnitude displayed is 2.5.

Coastal Water Temperatures

Place Temperature

Stations

Nearby Weather Stations

Station Location Temp. Windchill Dew Point Humidity Wind Precip. Elev Updated Type